Time;durP1;ratioP1;P1;durP2;ratioP2;P2;SDS_P1;SDS_P2;PMS_P1;PMS_P2;Temp;Humidity;BMP_temperature;BMP_pressure;BME280_temperature;BME280_humidity;BME280_pressure;Samples;Min_cycle;Max_cycle;Signal;HPM_P1;HPM_P2
2022/08/16 00:02:31;;;;;;;6.25;4.03;;;;;;;15.46;97.37;96715.44;5026268;28;20544;-58
2022/08/16 00:04:59;;;;;;;5.65;3.60;;;;;;;15.45;97.89;96711.91;5026605;28;20129;-57
2022/08/16 00:07:27;;;;;;;6.70;3.65;;;;;;;15.44;97.45;96714.94;5024895;28;20462;-57
2022/08/16 00:09:58;;;;;;;5.75;4.03;;;;;;;15.23;98.89;96718.03;5023291;28;20041;-58
2022/08/16 00:12:29;;;;;;;6.90;4.15;;;;;;;15.19;100.00;96715.06;5025040;28;20033;-57
2022/08/16 00:15:00;;;;;;;6.45;4.22;;;;;;;15.07;100.00;96723.72;5022797;28;20064;-58
2022/08/16 00:17:26;;;;;;;6.50;4.00;;;;;;;14.94;100.00;96724.47;5006496;28;20071;-58
2022/08/16 00:19:54;;;;;;;6.40;4.45;;;;;;;14.87;100.00;96721.31;5010799;28;20091;-58
2022/08/16 00:22:22;;;;;;;7.90;4.75;;;;;;;14.92;100.00;96723.94;5022034;28;20107;-58
2022/08/16 00:24:52;;;;;;;6.07;4.85;;;;;;;14.79;100.00;96729.06;5023530;28;20079;-58
2022/08/16 00:27:20;;;;;;;7.15;4.40;;;;;;;14.82;100.00;96725.72;5006594;28;20038;-56
2022/08/16 00:29:47;;;;;;;8.30;5.20;;;;;;;14.84;100.00;96725.44;5007201;28;20054;-57
2022/08/16 00:32:27;;;;;;;6.55;4.47;;;;;;;14.78;100.00;96732.88;5006008;28;20037;-58
2022/08/16 00:34:58;;;;;;;7.45;5.00;;;;;;;14.74;100.00;96725.56;5006947;28;20100;-59
2022/08/16 00:37:27;;;;;;;6.70;4.75;;;;;;;14.70;100.00;96730.78;5020071;28;20476;-58
2022/08/16 00:40:22;;;;;;;10.55;4.70;;;;;;;14.73;100.00;96727.47;5013740;28;20052;-59
2022/08/16 00:43:06;;;;;;;7.70;4.85;;;;;;;14.70;100.00;96725.34;5006838;28;20056;-58
2022/08/16 00:46:00;;;;;;;8.02;5.00;;;;;;;14.61;100.00;96727.94;5011613;28;20054;-57
2022/08/16 00:48:49;;;;;;;7.10;4.72;;;;;;;14.48;100.00;96728.66;5018706;28;20061;-58
2022/08/16 00:51:19;;;;;;;10.95;5.40;;;;;;;14.37;100.00;96731.50;5007776;28;20041;-57
2022/08/16 00:53:49;;;;;;;6.47;4.60;;;;;;;14.23;100.00;96733.34;5018428;28;20053;-58
2022/08/16 00:56:20;;;;;;;7.68;4.57;;;;;;;14.16;100.00;96734.47;5011066;28;20117;-57
2022/08/16 00:59:10;;;;;;;7.88;5.25;;;;;;;14.18;100.00;96731.47;5009762;28;20041;-58
2022/08/16 01:01:43;;;;;;;6.55;4.65;;;;;;;14.29;100.00;96727.53;5025570;28;20116;-57
2022/08/16 01:04:11;;;;;;;11.30;5.35;;;;;;;14.26;100.00;96724.59;5025444;28;20551;-58
2022/08/16 01:06:58;;;;;;;8.68;5.10;;;;;;;14.06;100.00;96729.19;5017268;28;20524;-58
2022/08/16 01:09:30;;;;;;;9.48;5.57;;;;;;;14.05;100.00;96728.34;5023984;28;20572;-58
2022/08/16 01:12:00;;;;;;;;;;;;;;;14.12;100.00;96730.72;5007218;28;20474;-56
2022/08/16 01:14:32;;;;;;;6.88;5.57;;;;;;;14.24;100.00;96724.88;5006989;28;20392;-57
2022/08/16 01:17:01;;;;;;;6.90;5.15;;;;;;;14.26;100.00;96728.09;5013746;28;20048;-58
2022/08/16 01:19:27;;;;;;;8.68;5.95;;;;;;;14.24;100.00;96724.88;5010665;28;20041;-58
2022/08/16 01:22:05;;;;;;;8.77;5.80;;;;;;;14.38;100.00;96724.94;5023571;28;20038;-58
2022/08/16 01:25:01;;;;;;;6.53;5.03;;;;;;;14.46;100.00;96734.41;5013631;28;20037;-58
2022/08/16 01:27:43;;;;;;;8.13;4.75;;;;;;;14.55;99.84;96735.34;5019414;28;20732;-58
2022/08/16 01:30:26;;;;;;;7.05;5.43;;;;;;;14.66;98.37;96737.94;5004328;28;20060;-57
2022/08/16 01:33:00;;;;;;;7.70;5.68;;;;;;;14.56;98.21;96745.16;5013491;28;20588;-56
2022/08/16 01:35:53;;;;;;;9.52;5.32;;;;;;;14.47;99.32;96738.72;5023173;28;20052;-57
2022/08/16 01:38:33;;;;;;;7.95;5.47;;;;;;;14.42;99.31;96736.88;5022237;28;20053;-58
2022/08/16 01:41:05;;;;;;;8.50;5.50;;;;;;;14.48;99.30;96734.91;5022689;28;20042;-57
2022/08/16 01:43:34;;;;;;;8.02;5.30;;;;;;;14.41;99.42;96738.00;5039089;28;20068;-58
2022/08/16 01:46:04;;;;;;;10.60;5.80;;;;;;;14.28;100.00;96739.53;5014627;28;20046;-58
2022/08/16 01:49:02;;;;;;;8.00;5.40;;;;;;;14.19;100.00;96730.38;5021870;28;20664;-58
2022/08/16 01:51:30;;;;;;;8.02;5.20;;;;;;;14.34;100.00;96732.09;5029204;28;20041;-57
2022/08/16 01:53:58;;;;;;;8.77;5.82;;;;;;;14.37;99.17;96733.44;5023313;28;20065;-58
2022/08/16 01:56:30;;;;;;;7.20;5.90;;;;;;;14.26;99.86;96735.47;5014400;28;20110;-58
2022/08/16 01:59:00;;;;;;;8.02;5.57;;;;;;;14.23;100.00;96733.34;5023562;28;20048;-58
2022/08/16 02:01:28;;;;;;;7.78;5.47;;;;;;;14.15;100.00;96735.59;5025231;28;20412;-58
2022/08/16 02:03:57;;;;;;;8.87;5.70;;;;;;;14.16;100.00;96729.03;5023680;28;20157;-59
2022/08/16 02:06:39;;;;;;;8.88;5.90;;;;;;;14.27;100.00;96731.66;5023927;28;20988;-58
2022/08/16 02:09:15;;;;;;;7.95;5.82;;;;;;;14.24;100.00;96732.22;5023876;28;20063;-58
2022/08/16 02:11:49;;;;;;;8.02;6.03;;;;;;;14.20;100.00;96732.00;5011380;28;20046;-57
2022/08/16 02:14:26;;;;;;;7.85;5.82;;;;;;;14.17;100.00;96732.59;5025367;28;20495;-58
2022/08/16 02:17:00;;;;;;;8.30;6.20;;;;;;;14.11;100.00;96731.81;5024038;28;20050;-58
2022/08/16 02:19:29;;;;;;;;;;;;;;;14.14;100.00;96736.69;5018124;28;20054;-57
2022/08/16 02:22:20;;;;;;;10.82;5.63;;;;;;;13.96;100.00;96732.03;5024135;28;20371;-57
2022/08/16 02:25:03;;;;;;;8.27;6.00;;;;;;;13.79;100.00;96730.56;5007370;28;20057;-58
2022/08/16 02:27:29;;;;;;;9.38;6.80;;;;;;;13.82;100.00;96735.41;5011110;28;20096;-57
2022/08/16 02:29:57;;;;;;;12.52;6.25;;;;;;;13.74;100.00;96736.03;5027042;28;20053;-58
2022/08/16 02:32:31;;;;;;;9.00;6.85;;;;;;;13.69;100.00;96734.22;5024334;28;20038;-58
2022/08/16 02:35:17;;;;;;;11.63;7.13;;;;;;;13.64;100.00;96729.63;5008961;28;20046;-58
2022/08/16 02:37:48;;;;;;;;;;;;;;;13.60;100.00;96725.84;5010881;28;20041;-59
2022/08/16 02:40:22;;;;;;;8.32;6.22;;;;;;;13.39;100.00;96734.16;5025431;28;19948;-57
2022/08/16 02:42:53;;;;;;;10.98;7.03;;;;;;;13.35;100.00;96730.41;5028511;28;20065;-58
2022/08/16 02:45:23;;;;;;;9.05;7.18;;;;;;;13.30;100.00;96727.72;5025229;28;20046;-59
2022/08/16 02:47:54;;;;;;;10.85;7.90;;;;;;;13.33;100.00;96726.34;5025771;28;20488;-59
2022/08/16 02:50:41;;;;;;;10.75;7.22;;;;;;;13.30;100.00;96732.38;5026709;28;20563;-58
2022/08/16 02:53:28;;;;;;;9.27;7.40;;;;;;;13.25;100.00;96720.44;5025923;28;20047;-59
2022/08/16 02:55:55;;;;;;;9.57;6.93;;;;;;;13.13;100.00;96720.00;5021849;28;20126;-58
2022/08/16 02:58:22;;;;;;;9.60;7.95;;;;;;;13.22;100.00;96723.72;5007126;28;20050;-58
2022/08/16 03:00:53;;;;;;;12.25;8.02;;;;;;;13.44;100.00;96711.56;5017296;28;20053;-58
2022/08/16 03:03:23;;;;;;;;;;;;;;;13.63;100.00;96711.69;5022409;28;20119;-58
2022/08/16 03:05:51;;;;;;;9.10;6.85;;;;;;;13.83;100.00;96703.59;5006994;28;19930;-58
2022/08/16 03:08:21;;;;;;;8.57;6.63;;;;;;;13.86;100.00;96703.00;5009585;28;20054;-59
2022/08/16 03:11:09;;;;;;;9.93;6.30;;;;;;;13.80;100.00;96704.97;5006637;28;20042;-58
2022/08/16 03:13:48;;;;;;;8.88;7.00;;;;;;;13.67;100.00;96711.91;5018685;28;20111;-58
2022/08/16 03:16:19;;;;;;;8.25;6.47;;;;;;;13.46;100.00;96705.84;5020629;28;20048;-58
2022/08/16 03:19:07;;;;;;;10.10;7.35;;;;;;;13.52;100.00;96702.00;5018129;28;20468;-58
2022/08/16 03:21:34;;;;;;;8.10;6.78;;;;;;;13.62;100.00;96693.75;5006321;28;20046;-55
2022/08/16 03:24:06;;;;;;;13.40;6.78;;;;;;;13.72;100.00;96701.00;5005898;28;20122;-57
2022/08/16 03:26:56;;;;;;;10.77;6.63;;;;;;;13.87;100.00;96691.84;5026201;28;20053;-58
2022/08/16 03:29:26;;;;;;;10.52;7.28;;;;;;;13.98;100.00;96697.16;5023554;28;20088;-58
2022/08/16 03:32:00;;;;;;;9.00;6.60;;;;;;;14.05;100.00;96700.34;5015694;28;20029;-57
2022/08/16 03:34:32;;;;;;;7.90;6.10;;;;;;;13.96;100.00;96697.44;5021504;28;20042;-58
2022/08/16 03:36:59;;;;;;;9.55;7.00;;;;;;;13.93;100.00;96698.00;5008928;28;20050;-58
2022/08/16 03:39:26;;;;;;;10.52;6.65;;;;;;;13.72;100.00;96692.00;5024392;28;20038;-58
2022/08/16 03:41:56;;;;;;;10.07;7.35;;;;;;;13.55;100.00;96701.44;5025434;28;20050;-58
2022/08/16 03:44:27;;;;;;;7.45;6.50;;;;;;;13.47;100.00;96700.13;5022868;28;20045;-53
2022/08/16 03:47:15;;;;;;;11.30;7.68;;;;;;;13.63;100.00;96699.97;5005121;28;20150;-55
2022/08/16 03:49:46;;;;;;;8.77;7.50;;;;;;;13.67;100.00;96689.34;5024178;28;20034;-54
2022/08/16 03:52:21;;;;;;;10.40;7.30;;;;;;;13.70;100.00;96689.56;5025469;28;20053;-53
2022/08/16 03:54:51;;;;;;;8.10;6.60;;;;;;;13.88;100.00;96696.19;5021443;28;20129;-54
2022/08/16 03:57:26;;;;;;;10.30;6.72;;;;;;;14.07;100.00;96691.88;5006913;28;20057;-53
2022/08/16 04:00:13;;;;;;;7.57;6.35;;;;;;;14.11;100.00;96698.38;5011919;28;20046;-54
2022/08/16 04:03:06;;;;;;;10.05;5.90;;;;;;;14.21;100.00;96691.97;5025293;28;20520;-53
2022/08/16 04:05:44;;;;;;;7.63;5.68;;;;;;;14.27;100.00;96702.50;5021116;28;20406;-53
2022/08/16 04:08:13;;;;;;;9.23;6.10;;;;;;;14.45;100.00;96702.81;5005219;28;20080;-52
2022/08/16 04:10:58;;;;;;;7.47;6.05;;;;;;;14.63;100.00;96706.63;5024773;28;20492;-53
2022/08/16 04:13:27;;;;;;;11.20;5.90;;;;;;;14.80;98.74;96711.59;5021641;28;20038;-47
2022/08/16 04:16:16;;;;;;;6.10;5.20;;;;;;;15.04;97.24;96693.53;5017079;28;20135;-53
2022/08/16 04:19:02;;;;;;;7.15;5.50;;;;;;;15.13;96.12;96689.00;5004409;28;20052;-56
2022/08/16 04:21:32;;;;;;;8.93;6.00;;;;;;;15.07;97.05;96703.81;5022798;28;20041;-55
2022/08/16 04:24:01;;;;;;;7.60;5.40;;;;;;;15.24;96.44;96697.81;5018418;28;20034;-49
2022/08/16 04:26:28;;;;;;;8.15;4.88;;;;;;;15.41;95.14;96701.91;5016268;28;20107;-55
2022/08/16 04:28:57;;;;;;;7.95;6.30;;;;;;;15.39;95.07;96698.66;5022892;28;20042;-53
2022/08/16 04:31:46;;;;;;;7.85;5.55;;;;;;;15.60;93.54;96701.84;5018445;28;20046;-49
2022/08/16 04:34:25;;;;;;;7.18;4.97;;;;;;;15.66;92.70;96699.81;5013403;28;20555;-58
2022/08/16 04:36:53;;;;;;;9.43;5.38;;;;;;;15.65;92.33;96706.38;5018669;28;20652;-59
2022/08/16 04:39:22;;;;;;;7.32;5.35;;;;;;;15.65;92.63;96699.00;5022184;28;20045;-59
2022/08/16 04:41:50;;;;;;;7.38;5.07;;;;;;;15.83;91.36;96705.50;5014850;28;20076;-59
2022/08/16 04:44:23;;;;;;;7.22;4.90;;;;;;;15.83;91.22;96713.69;5016292;28;20051;-58
2022/08/16 04:47:11;;;;;;;6.07;5.18;;;;;;;15.89;90.67;96717.13;5013636;28;20046;-58
2022/08/16 04:49:51;;;;;;;8.07;5.47;;;;;;;15.93;90.50;96715.41;5020302;28;20056;-58
2022/08/16 04:52:19;;;;;;;6.85;5.50;;;;;;;15.97;90.21;96713.72;5016501;28;20096;-59
2022/08/16 04:55:05;;;;;;;7.05;5.13;;;;;;;16.05;90.20;96717.66;5013378;28;20077;-57
2022/08/16 04:57:34;;;;;;;6.80;4.55;;;;;;;16.11;89.72;96723.81;5005059;28;20049;-58
2022/08/16 05:00:10;;;;;;;6.18;5.25;;;;;;;16.09;89.67;96729.59;5022417;28;20054;-58
2022/08/16 05:03:05;;;;;;;7.18;5.35;;;;;;;16.01;90.39;96730.28;5005388;28;20049;-59
2022/08/16 05:05:41;;;;;;;7.38;5.25;;;;;;;15.96;91.12;96733.13;5015013;28;20042;-58
2022/08/16 05:08:24;;;;;;;8.03;5.30;;;;;;;15.89;92.37;96728.03;5017080;28;20776;-57
2022/08/16 05:11:04;;;;;;;15.73;6.47;;;;;;;15.89;92.29;96738.13;5005017;28;20054;-59
2022/08/16 05:13:36;;;;;;;6.03;5.18;;;;;;;15.90;91.97;96737.84;5006458;28;20128;-58
2022/08/16 05:16:36;;;;;;;6.68;4.88;;;;;;;15.99;91.16;96733.31;5018204;28;20045;-58
2022/08/16 05:19:07;;;;;;;9.50;5.65;;;;;;;16.10;90.70;96742.13;5006540;28;20049;-58
2022/08/16 05:21:59;;;;;;;8.10;5.20;;;;;;;16.23;89.42;96743.25;4991171;28;20132;-58
2022/08/16 05:24:25;;;;;;;8.70;5.35;;;;;;;16.33;88.76;96742.19;5011554;28;20803;-57
2022/08/16 05:26:52;;;;;;;7.55;6.35;;;;;;;16.35;88.90;96747.34;5003975;28;20702;-59
2022/08/16 05:29:22;;;;;;;6.82;4.75;;;;;;;16.37;88.84;96753.34;5004986;28;20111;-58
2022/08/16 05:32:13;;;;;;;;;;;;;;;16.41;88.42;96748.88;5021374;28;20049;-57
2022/08/16 05:35:00;;;;;;;7.60;5.10;;;;;;;16.43;88.56;96740.38;5016263;28;19921;-57
2022/08/16 05:37:28;;;;;;;7.43;4.95;;;;;;;16.44;88.37;96748.25;5016560;28;20152;-58
2022/08/16 05:40:08;;;;;;;7.32;4.93;;;;;;;16.51;88.39;96740.47;5014879;28;20054;-58
2022/08/16 05:42:39;;;;;;;7.38;5.00;;;;;;;16.62;87.66;96748.44;5018785;28;20064;-59
2022/08/16 05:45:14;;;;;;;7.22;4.88;;;;;;;16.68;87.30;96749.94;5018329;28;20045;-59
2022/08/16 05:47:52;;;;;;;6.13;4.95;;;;;;;16.74;88.47;96747.91;5009510;28;20056;-61
2022/08/16 05:50:35;;;;;;;7.93;5.32;;;;;;;16.69;88.40;96748.03;5021073;28;20538;-62
2022/08/16 05:53:03;;;;;;;7.50;5.20;;;;;;;16.72;88.14;96745.47;5020488;28;20045;-62
2022/08/16 05:55:33;;;;;;;7.03;5.00;;;;;;;16.86;87.26;96758.31;5021464;28;20127;-62
2022/08/16 05:58:06;;;;;;;8.73;4.68;;;;;;;16.92;86.77;96759.81;5017001;28;20042;-61
2022/08/16 06:00:34;;;;;;;8.90;5.25;;;;;;;16.98;87.53;96757.75;5015153;28;20524;-62
2022/08/16 06:03:00;;;;;;;6.65;4.60;;;;;;;17.16;87.40;96759.56;5018346;28;20041;-63
2022/08/16 06:06:00;;;;;;;9.40;5.78;;;;;;;17.25;86.04;96762.34;5013793;28;20489;-63
2022/08/16 06:08:31;;;;;;;7.55;4.68;;;;;;;17.35;85.72;96760.47;5018674;28;20136;-62
2022/08/16 06:11:13;;;;;;;6.72;5.00;;;;;;;17.62;84.29;96769.66;5021911;28;20121;-62
2022/08/16 06:13:46;;;;;;;6.53;4.75;;;;;;;17.71;82.86;96762.31;5019313;28;20069;-63
2022/08/16 06:16:17;;;;;;;6.60;5.00;;;;;;;17.79;82.72;96758.81;5020756;28;20716;-62
2022/08/16 06:18:49;;;;;;;6.75;5.03;;;;;;;17.64;83.32;96772.88;5013015;28;20120;-63
2022/08/16 06:21:16;;;;;;;7.20;4.95;;;;;;;17.79;82.51;96774.41;5015633;28;20140;-64
2022/08/16 06:23:51;;;;;;;6.00;4.43;;;;;;;17.79;82.58;96764.28;5020698;28;20137;-61
2022/08/16 06:26:21;;;;;;;5.97;4.55;;;;;;;17.82;82.49;96762.84;5014373;28;20112;-61
2022/08/16 06:28:48;;;;;;;6.90;5.00;;;;;;;17.98;81.93;96770.66;5020541;28;20083;-61
2022/08/16 06:31:24;;;;;;;6.40;4.63;;;;;;;18.04;81.81;96767.47;5017591;28;20053;-62
2022/08/16 06:33:53;;;;;;;7.28;5.25;;;;;;;17.87;82.56;96759.97;5016173;28;20060;-64
2022/08/16 06:36:22;;;;;;;7.97;4.38;;;;;;;17.94;82.39;96765.81;5023825;28;20801;-62
2022/08/16 06:39:04;;;;;;;7.68;5.05;;;;;;;17.91;82.63;96769.16;5016117;28;20060;-65
2022/08/16 06:41:47;;;;;;;7.43;5.00;;;;;;;18.05;82.35;96769.06;5038500;28;20121;-60
2022/08/16 06:44:34;;;;;;;6.72;4.90;;;;;;;18.11;81.63;96760.75;5023147;28;20068;-62
2022/08/16 06:47:04;;;;;;;6.45;5.28;;;;;;;18.15;81.98;96765.28;5016582;28;20136;-63
2022/08/16 06:49:30;;;;;;;7.65;4.90;;;;;;;18.32;81.23;96759.03;5017241;28;20417;-63
2022/08/16 06:51:58;;;;;;;5.85;4.75;;;;;;;18.53;80.64;96768.59;5024408;28;20049;-64
2022/08/16 06:54:34;;;;;;;6.25;4.70;;;;;;;18.78;80.19;96771.69;5024424;28;20047;-63
2022/08/16 06:57:01;;;;;;;11.20;4.53;;;;;;;19.06;77.25;96764.00;5025238;28;20049;-64
2022/08/16 06:59:29;;;;;;;7.10;4.82;;;;;;;19.16;77.66;96764.84;5023261;28;20509;-61
2022/08/16 07:02:16;;;;;;;6.90;4.63;;;;;;;19.20;75.04;96774.81;5015185;28;20444;-65
2022/08/16 07:05:00;;;;;;;7.90;5.90;;;;;;;19.22;75.42;96772.56;5012895;28;20045;-62
2022/08/16 07:07:27;;;;;;;6.15;4.78;;;;;;;19.34;75.24;96779.31;5022677;28;20132;-62
2022/08/16 07:10:00;;;;;;;7.20;4.90;;;;;;;19.34;75.05;96782.06;5020429;28;20046;-63
2022/08/16 07:12:34;;;;;;;8.43;4.55;;;;;;;19.32;75.88;96785.13;5017056;28;20759;-62
2022/08/16 07:15:13;;;;;;;10.15;6.97;;;;;;;19.47;75.39;96785.78;5009393;28;20038;-62
2022/08/16 07:17:48;;;;;;;9.60;5.75;;;;;;;19.53;73.91;96781.72;5013818;28;20730;-64
2022/08/16 07:20:15;;;;;;;7.20;4.95;;;;;;;19.56;73.95;96778.34;5021682;28;20140;-64
2022/08/16 07:23:02;;;;;;;9.50;6.03;;;;;;;19.58;74.34;96780.75;5009537;28;20064;-63
2022/08/16 07:25:46;;;;;;;9.13;5.45;;;;;;;19.71;73.66;96774.28;5006586;28;20038;-63
2022/08/16 07:28:15;;;;;;;9.80;5.60;;;;;;;19.80;73.78;96777.00;5021090;28;20053;-62
2022/08/16 07:30:51;;;;;;;7.82;4.68;;;;;;;19.81;74.29;96777.78;5023013;28;20729;-62
2022/08/16 07:33:26;;;;;;;7.97;4.82;;;;;;;19.92;73.15;96779.06;5018890;28;20049;-62
2022/08/16 07:36:14;;;;;;;7.82;5.00;;;;;;;20.02;72.39;96758.69;5013549;28;20054;-63
2022/08/16 07:38:48;;;;;;;6.70;5.00;;;;;;;20.16;71.69;96768.66;5019365;28;20046;-62
2022/08/16 07:41:16;;;;;;;7.85;5.53;;;;;;;20.28;70.83;96766.81;5019724;28;20050;-62
2022/08/16 07:43:48;;;;;;;7.85;4.90;;;;;;;20.49;69.83;96766.06;5016737;28;20072;-63
2022/08/16 07:46:17;;;;;;;7.18;5.13;;;;;;;20.44;69.13;96766.25;5019153;28;20928;-63
2022/08/16 07:49:10;;;;;;;9.63;6.15;;;;;;;20.59;67.42;96775.88;5034774;28;20158;-63
2022/08/16 07:51:39;;;;;;;6.57;5.10;;;;;;;20.74;66.97;96771.75;5019507;28;20064;-63
2022/08/16 07:54:09;;;;;;;7.72;5.45;;;;;;;20.92;64.72;96774.41;5018181;28;20067;-65
2022/08/16 07:56:46;;;;;;;11.75;5.90;;;;;;;20.96;64.80;96777.31;5019517;28;20121;-63
2022/08/16 07:59:13;;;;;;;6.20;5.25;;;;;;;20.84;65.24;96783.50;5019986;28;20049;-65
2022/08/16 08:01:40;;;;;;;7.18;4.82;;;;;;;20.79;65.01;96781.75;5007449;28;20168;-64
2022/08/16 08:04:12;;;;;;;7.80;5.13;;;;;;;20.99;64.42;96787.63;5011524;28;20580;-64
2022/08/16 08:06:41;;;;;;;7.63;5.78;;;;;;;21.04;63.61;96785.47;5018510;28;20042;-63
2022/08/16 08:09:14;;;;;;;7.82;5.95;;;;;;;21.13;63.49;96792.88;5006962;28;20046;-64
2022/08/16 08:11:41;;;;;;;10.68;6.40;;;;;;;21.28;62.90;96789.50;5018904;28;20046;-66
2022/08/16 08:14:31;;;;;;;9.60;6.70;;;;;;;21.47;62.24;96798.41;5015019;28;20562;-64
2022/08/16 08:17:00;;;;;;;8.63;5.70;;;;;;;21.68;61.99;96788.16;5021042;28;20080;-65
2022/08/16 08:19:29;;;;;;;8.35;5.85;;;;;;;21.64;60.76;96787.22;5015986;28;20046;-62
2022/08/16 08:21:56;;;;;;;9.85;5.43;;;;;;;21.76;60.78;96794.75;5021362;28;20049;-64
2022/08/16 08:24:41;;;;;;;6.72;5.45;;;;;;;21.88;60.23;96805.00;5008413;28;20073;-63
2022/08/16 08:27:10;;;;;;;12.32;6.10;;;;;;;21.77;59.85;96796.38;5017581;28;20092;-63
2022/08/16 08:29:37;;;;;;;8.57;5.25;;;;;;;21.79;60.29;96799.59;5018688;28;20042;-66
2022/08/16 08:32:10;;;;;;;10.25;5.32;;;;;;;21.85;60.73;96796.63;5020566;28;20455;-65
2022/08/16 08:35:01;;;;;;;8.32;5.15;;;;;;;22.11;59.27;96804.59;5019534;28;20050;-63
2022/08/16 08:37:32;;;;;;;8.40;5.30;;;;;;;21.87;59.08;96805.34;5020341;28;20079;-62
2022/08/16 08:40:19;;;;;;;7.00;5.30;;;;;;;21.60;60.51;96802.84;5018868;28;20522;-63
2022/08/16 08:42:51;;;;;;;7.25;4.88;;;;;;;21.68;60.13;96806.66;5013536;28;20097;-63
2022/08/16 08:45:24;;;;;;;9.07;6.10;;;;;;;21.87;59.54;96813.59;5035053;28;20103;-65
2022/08/16 08:48:11;;;;;;;9.60;5.35;;;;;;;21.95;59.58;96815.47;5018229;28;20045;-62
2022/08/16 08:50:57;;;;;;;7.30;5.18;;;;;;;22.26;59.89;96813.34;5017548;28;20056;-64
2022/08/16 08:53:25;;;;;;;6.15;4.97;;;;;;;22.56;58.22;96818.69;5016140;28;20054;-64
2022/08/16 08:55:56;;;;;;;8.32;5.15;;;;;;;22.81;57.24;96819.47;5021817;28;20467;-64
2022/08/16 08:58:25;;;;;;;8.35;5.55;;;;;;;22.72;56.19;96816.03;5004864;28;20053;-63
2022/08/16 09:01:21;;;;;;;8.02;5.13;;;;;;;22.73;56.51;96814.88;5017506;28;20050;-62
2022/08/16 09:03:58;;;;;;;8.63;5.35;;;;;;;22.69;56.92;96816.72;5018837;28;20045;-61
2022/08/16 09:06:25;;;;;;;11.38;5.30;;;;;;;22.84;56.56;96820.72;5013705;28;20160;-63
2022/08/16 09:08:52;;;;;;;8.73;4.60;;;;;;;22.88;55.93;96821.63;5016167;28;20050;-62
2022/08/16 09:11:18;;;;;;;6.43;4.93;;;;;;;22.88;55.15;96820.84;5014696;28;20065;-65
2022/08/16 09:13:47;;;;;;;6.60;4.35;;;;;;;22.79;55.89;96816.25;5022304;28;20772;-63
2022/08/16 09:16:16;;;;;;;7.82;4.88;;;;;;;22.60;56.14;96825.13;5013226;28;20056;-61
2022/08/16 09:19:04;;;;;;;8.55;5.60;;;;;;;22.65;57.74;96824.06;5020069;28;20053;-63
2022/08/16 09:21:31;;;;;;;6.78;4.95;;;;;;;22.67;58.61;96825.31;5012093;28;20053;-62
2022/08/16 09:24:02;;;;;;;6.05;4.97;;;;;;;22.68;59.21;96818.69;5018926;28;20618;-61
2022/08/16 09:26:35;;;;;;;8.95;5.28;;;;;;;22.61;58.60;96821.19;5010814;28;20054;-62
2022/08/16 09:29:11;;;;;;;7.53;5.38;;;;;;;22.79;58.09;96820.97;5002450;28;20533;-63
2022/08/16 09:31:45;;;;;;;7.95;5.40;;;;;;;22.76;58.64;96822.47;5009128;28;20499;-63
2022/08/16 09:34:12;;;;;;;7.32;5.50;;;;;;;22.58;58.50;96827.41;5010122;28;20041;-61
2022/08/16 09:36:44;;;;;;;7.60;5.65;;;;;;;22.62;58.53;96819.25;5021799;28;20107;-63
2022/08/16 09:39:13;;;;;;;9.07;5.50;;;;;;;22.62;58.29;96822.81;5015401;28;20070;-63
2022/08/16 09:41:42;;;;;;;7.78;5.28;;;;;;;22.50;59.04;96825.53;5012606;28;20050;-63
2022/08/16 09:44:23;;;;;;;8.68;6.25;;;;;;;22.55;58.45;96826.13;5021117;28;20262;-65
2022/08/16 09:47:10;;;;;;;8.10;5.20;;;;;;;22.67;57.76;96830.84;5013970;28;20049;-61
2022/08/16 09:49:36;;;;;;;8.35;5.35;;;;;;;22.88;56.49;96829.13;5008885;28;20046;-66
2022/08/16 09:52:07;;;;;;;8.32;5.97;;;;;;;22.74;56.52;96825.56;5009071;28;20046;-64
2022/08/16 09:54:36;;;;;;;6.20;5.03;;;;;;;22.79;56.38;96832.00;5014031;28;20436;-66
2022/08/16 09:57:03;;;;;;;7.40;5.13;;;;;;;22.88;56.50;96826.38;5021798;28;20111;-63
2022/08/16 09:59:30;;;;;;;7.15;5.20;;;;;;;23.12;54.63;96826.34;5025936;28;20705;-65
2022/08/16 10:02:05;;;;;;;6.28;4.60;;;;;;;23.19;53.83;96825.75;5017018;28;20049;-63
2022/08/16 10:04:52;;;;;;;8.02;5.00;;;;;;;23.56;54.17;96824.03;5023530;28;20065;-61
2022/08/16 10:07:21;;;;;;;9.02;5.05;;;;;;;23.59;54.15;96826.09;5024649;28;20457;-63
2022/08/16 10:09:48;;;;;;;7.68;4.97;;;;;;;23.88;52.79;96835.97;5025736;28;20073;-63
2022/08/16 10:15:21;;;;;;;7.28;4.55;;;;;;;24.19;51.17;96824.53;5026425;28;20052;-63
2022/08/16 10:17:51;;;;;;;7.60;4.53;;;;;;;23.96;53.31;96825.94;5009608;28;20741;-63
2022/08/16 10:20:30;;;;;;;8.05;4.93;;;;;;;23.82;52.97;96825.53;5022760;28;20106;-63
2022/08/16 10:22:57;;;;;;;10.75;6.05;;;;;;;23.42;54.11;96829.94;5025393;28;20072;-63
2022/08/16 10:25:34;;;;;;;7.88;5.03;;;;;;;23.47;53.79;96829.69;5025274;28;20037;-63
2022/08/16 10:28:20;;;;;;;7.30;5.15;;;;;;;23.59;53.57;96829.66;5026185;28;20096;-63
2022/08/16 10:31:02;;;;;;;6.15;4.70;;;;;;;23.78;53.44;96829.00;5025564;28;20116;-63
2022/08/16 10:33:32;;;;;;;7.28;5.10;;;;;;;23.76;53.61;96830.50;5023641;28;20501;-63
2022/08/16 10:36:01;;;;;;;7.63;4.97;;;;;;;23.98;53.11;96836.59;5025440;28;20037;-64
2022/08/16 10:38:30;;;;;;;7.97;5.30;;;;;;;23.94;53.96;96832.94;5025009;28;20049;-63
2022/08/16 10:41:02;;;;;;;6.65;5.20;;;;;;;23.97;52.80;96833.06;5024394;28;20041;-63
2022/08/16 10:43:29;;;;;;;8.75;4.75;;;;;;;23.99;52.61;96830.72;5015642;28;20072;-62
2022/08/16 10:45:57;;;;;;;8.27;5.05;;;;;;;24.03;52.31;96837.16;5024330;28;20045;-63
2022/08/16 10:48:27;;;;;;;5.65;4.88;;;;;;;24.22;51.33;96832.94;5025715;28;20527;-63
2022/08/16 10:50:57;;;;;;;7.13;4.88;;;;;;;24.29;50.24;96837.84;5024661;28;20033;-63
2022/08/16 10:53:26;;;;;;;8.15;5.10;;;;;;;24.16;51.89;96835.16;5024560;28;20045;-63
2022/08/16 10:56:08;;;;;;;7.80;5.03;;;;;;;24.11;51.50;96835.44;5018783;28;20120;-62
2022/08/16 10:58:56;;;;;;;6.85;4.55;;;;;;;24.20;50.93;96828.91;5024770;28;20052;-63
2022/08/16 11:01:44;;;;;;;6.88;4.90;;;;;;;24.49;50.20;96840.69;5012706;28;20110;-63
2022/08/16 11:04:30;;;;;;;6.15;4.55;;;;;;;24.60;49.83;96836.25;5017759;28;20405;-62
2022/08/16 11:07:17;;;;;;;6.90;4.65;;;;;;;24.65;49.66;96835.16;5018527;28;20128;-62
2022/08/16 11:10:04;;;;;;;7.32;5.13;;;;;;;24.45;50.12;96832.31;5008056;28;20053;-66
2022/08/16 11:12:51;;;;;;;7.82;4.32;;;;;;;24.58;50.35;96841.31;5017376;28;20117;-63
2022/08/16 11:15:19;;;;;;;7.47;4.40;;;;;;;24.74;49.95;96838.56;5023587;28;20059;-65
2022/08/16 11:17:49;;;;;;;8.23;4.70;;;;;;;24.85;49.03;96841.59;5018853;28;20444;-64
2022/08/16 11:20:36;;;;;;;6.85;4.22;;;;;;;25.12;48.67;96827.13;5023414;28;20045;-64
2022/08/16 11:23:08;;;;;;;6.15;4.22;;;;;;;24.84;49.07;96837.22;5024417;28;20049;-63
2022/08/16 11:25:36;;;;;;;5.88;4.65;;;;;;;24.77;48.83;96828.72;5023939;28;20156;-62
2022/08/16 11:28:24;;;;;;;7.45;4.13;;;;;;;25.23;48.59;96828.19;5024417;28;20073;-64
2022/08/16 11:31:10;;;;;;;4.95;4.00;;;;;;;25.45;47.29;96825.88;5023695;28;20749;-65
2022/08/16 11:33:39;;;;;;;7.00;4.88;;;;;;;25.69;46.19;96821.25;5019980;28;20041;-63
2022/08/16 11:36:22;;;;;;;8.60;4.22;;;;;;;25.17;46.38;96824.13;5017796;28;20592;-63
2022/08/16 11:38:55;;;;;;;5.90;3.67;;;;;;;25.22;45.34;96817.47;5012174;28;20049;-63
2022/08/16 11:41:25;;;;;;;5.68;4.03;;;;;;;25.52;46.05;96822.44;5023898;28;20550;-61
2022/08/16 11:43:56;;;;;;;5.45;4.15;;;;;;;25.78;46.07;96819.03;5013750;28;20128;-63
2022/08/16 11:46:22;;;;;;;6.53;3.80;;;;;;;26.24;45.85;96821.03;5024329;28;20527;-64
2022/08/16 11:49:09;;;;;;;7.18;4.32;;;;;;;25.98;43.98;96814.25;5025173;28;20645;-63
2022/08/16 11:51:42;;;;;;;8.27;4.13;;;;;;;25.63;44.72;96814.38;5010490;28;20475;-55
2022/08/16 11:54:13;;;;;;;5.78;3.75;;;;;;;25.76;44.22;96810.25;5024727;28;20045;-56
2022/08/16 11:56:50;;;;;;;6.72;3.65;;;;;;;26.00;45.84;96824.97;5014343;28;20049;-57
2022/08/16 11:59:23;;;;;;;6.88;4.05;;;;;;;25.77;44.24;96816.63;5024862;28;20049;-59
2022/08/16 12:01:57;;;;;;;5.72;4.03;;;;;;;25.96;43.65;96805.50;5022579;28;20053;-55
2022/08/16 12:04:30;;;;;;;8.18;4.03;;;;;;;26.07;42.66;96813.22;5010675;28;20045;-56
2022/08/16 12:06:57;;;;;;;7.90;3.72;;;;;;;26.02;42.74;96810.75;5016839;28;20060;-54
2022/08/16 12:09:24;;;;;;;7.78;3.67;;;;;;;26.03;42.92;96812.34;5011449;28;20472;-58
2022/08/16 12:11:57;;;;;;;7.75;3.80;;;;;;;26.14;43.58;96813.34;5021078;28;20072;-58